Minerva Concert — SVWC — position and weather

sailwx.info

Track history (hours):
 
Tides and Currents Weather Stations Pressure Air Temp Water Temp Dewpoint Dewpoint Depression Visibility Wind Speed Wind Dir Waves Ship Positions

Minerva Concert

Last reported at 2016-Jun-25 18:31 UTC. Time now 2016-Jun-26 06:31 UTC.
Position N 59°30' W 003°23'.

Length 241 m; draft 8 m.

Type: Ship. MMSI: 240110000.

Date/timePositionNaut miles runAvg speedWind from/ knotsBaromVisibWave heightAir tempDewpointWater temp
2016-Jun-25 18:31N 59°30' W 003°23'1313.0
2016-Jun-25 17:33N 59°29' W 003°47'1313.4
2016-Jun-25 16:33N 59°27' W 004°14'1313.1
2016-Jun-25 15:33N 59°25' W 004°39'  
2016-Jun-16 01:17N 38°20' W 074°12'911.9
2016-Jun-16 00:33N 38°22' W 074°23'1212.0
2016-Jun-15 23:33N 38°25' W 074°38'1110.6
2016-Jun-15 22:33N 38°32' W 074°48'1111.1
2016-Jun-15 21:33N 38°41' W 074°56'1010.2
2016-Jun-15 20:33N 38°49' W 075°04'9 9.4
2016-Jun-15 19:33N 38°58' W 075°07'1111.3
2016-Jun-15 18:33N 39°08' W 075°14'  
Track history (hours):
 
Tides and Currents Weather Stations Pressure Air Temp Water Temp Dewpoint Dewpoint Depression Visibility Wind Speed Wind Dir Waves Ship Positions

Minerva Concert

Last reported at 2016-Jun-25 18:31 UTC. Time now 2016-Jun-26 06:31 UTC.
Position N 59°30' W 003°23'.

Length 241 m; draft 8 m.

Type: Ship. MMSI: 240110000.

Date/timePositionNaut miles runAvg speedWind from/ knotsBaromVisibWave heightAir tempDewpointWater temp
2016-Jun-25 18:31N 59°30' W 003°23'1313.0
2016-Jun-25 17:33N 59°29' W 003°47'1313.4
2016-Jun-25 16:33N 59°27' W 004°14'1313.1
2016-Jun-25 15:33N 59°25' W 004°39'  
2016-Jun-16 01:17N 38°20' W 074°12'911.9
2016-Jun-16 00:33N 38°22' W 074°23'1212.0
2016-Jun-15 23:33N 38°25' W 074°38'1110.6
2016-Jun-15 22:33N 38°32' W 074°48'1111.1
2016-Jun-15 21:33N 38°41' W 074°56'1010.2
2016-Jun-15 20:33N 38°49' W 075°04'9 9.4
2016-Jun-15 19:33N 38°58' W 075°07'1111.3
2016-Jun-15 18:33N 39°08' W 075°14'  

Dump ship's entire track history